< < Back
Terminal Aerodrome Forecast


Current Version              Previous Versions:   1  2  3  4  5  6  7  8  9  

Terminal Aerodrome Forecast

713
FTUS44 KMOB 262300
TAFMOB
TAF
KMOB 262327Z 2700/2724 24006KT P6SM SCT250
     FM271500 27006KT P6SM VCTS SCT030CB SCT250=

Latest METAR

178
SAUS80 KWBC 280400 CCA
MTRMOB
METAR KMOB 280356Z 22007KT 10SM CLR 27/26 A3005 RMK AO2 SLP172
T02670256


USA.gov is the U.S. government's official web portal to all federal, state and local government web resources and services.